Time;durP1;ratioP1;P1;durP2;ratioP2;P2;SDS_P1;SDS_P2;PMS_P1;PMS_P2;Temp;Humidity;BMP_temperature;BMP_pressure;BME280_temperature;BME280_humidity;BME280_pressure;Samples;Min_cycle;Max_cycle;Signal;HPM_P1;HPM_P2
2021/07/19 00:00:37;;;;;;;9.57;6.60;;;18.10;99.90;;;;;;5092076;28;20285;-80
2021/07/19 00:03:05;;;;;;;9.30;7.00;;;18.10;99.90;;;;;;5074191;28;20235;-80
2021/07/19 00:05:32;;;;;;;8.50;7.23;;;18.20;99.90;;;;;;5073464;28;20200;-80
2021/07/19 00:07:59;;;;;;;9.00;6.37;;;18.30;99.90;;;;;;5074154;28;20653;-80
2021/07/19 00:10:27;;;;;;;7.33;6.40;;;18.30;99.90;;;;;;5078995;28;20274;-80
2021/07/19 00:12:54;;;;;;;8.17;6.53;;;18.20;99.90;;;;;;5094271;28;20656;-80
2021/07/19 00:15:23;;;;;;;9.03;6.93;;;18.20;99.90;;;;;;5094645;28;20241;-80
2021/07/19 00:17:50;;;;;;;8.27;6.80;;;18.20;99.90;;;;;;5094514;28;20194;-80
2021/07/19 00:20:18;;;;;;;8.50;6.70;;;18.20;99.90;;;;;;5090906;28;20202;-80
2021/07/19 00:22:46;;;;;;;9.17;6.77;;;18.20;99.90;;;;;;5094675;28;20282;-80
2021/07/19 00:25:15;;;;;;;8.77;6.97;;;18.20;99.90;;;;;;5094350;28;20223;-80
2021/07/19 00:27:44;;;;;;;8.47;6.53;;;18.20;99.90;;;;;;5044659;28;1409946;-80
2021/07/19 00:30:14;;;;;;;7.33;6.63;;;18.30;99.90;;;;;;5095025;28;20242;-79
2021/07/19 00:32:41;;;;;;;10.13;7.13;;;18.30;99.90;;;;;;5095012;28;20242;-80
2021/07/19 00:35:09;;;;;;;12.20;7.13;;;18.30;99.90;;;;;;5094363;28;20230;-80
2021/07/19 00:37:36;;;;;;;12.17;6.60;;;18.10;99.90;;;;;;5095423;28;20636;-80
2021/07/19 00:40:09;;;;;;;10.83;7.63;;;18.00;99.90;;;;;;5077108;28;20239;-80
2021/07/19 00:42:38;;;;;;;10.00;7.33;;;17.80;99.90;;;;;;5074523;28;20286;-80
2021/07/19 00:45:10;;;;;;;10.90;7.20;;;17.70;99.90;;;;;;5074341;28;20254;-80
2021/07/19 00:47:37;;;;;;;12.77;8.07;;;17.60;99.90;;;;;;5073968;28;20195;-80
2021/07/19 00:50:06;;;;;;;10.77;7.37;;;17.60;99.90;;;;;;5073568;28;20286;-80
2021/07/19 00:52:34;;;;;;;9.83;7.53;;;17.60;99.90;;;;;;5073812;28;20278;-80
2021/07/19 00:55:02;;;;;;;9.60;7.30;;;17.80;99.90;;;;;;5073896;28;20612;-80
2021/07/19 00:57:31;;;;;;;14.10;7.57;;;17.90;99.90;;;;;;5074351;28;20282;-80
2021/07/19 00:59:59;;;;;;;10.10;8.23;;;17.80;99.90;;;;;;5076768;28;20197;-80
2021/07/19 01:02:29;;;;;;;11.60;8.13;;;17.70;99.90;;;;;;5094556;28;20191;-80
2021/07/19 01:04:57;;;;;;;13.33;8.57;;;17.80;99.90;;;;;;5094064;28;20223;-80
2021/07/19 01:07:28;;;;;;;9.97;8.40;;;17.50;99.90;;;;;;5093663;28;20281;-80
2021/07/19 01:09:55;;;;;;;11.97;8.13;;;17.50;99.90;;;;;;5094590;28;20294;-80
2021/07/19 01:12:22;;;;;;;13.03;8.17;;;17.50;99.90;;;;;;5094077;28;20730;-80
2021/07/19 01:14:49;;;;;;;11.87;7.83;;;17.50;99.90;;;;;;5094103;28;20697;-80
2021/07/19 01:17:16;;;;;;;14.67;8.13;;;17.60;99.90;;;;;;5094355;28;20285;-80
2021/07/19 01:19:49;;;;;;;10.17;8.00;;;17.60;99.90;;;;;;5094203;28;20195;-80
2021/07/19 01:22:37;;;;;;;10.13;7.70;;;17.70;99.90;;;;;;5093589;28;20229;-80
2021/07/19 01:25:19;;;;;;;9.67;7.70;;;17.60;99.90;;;;;;5076605;28;20632;-80
2021/07/19 01:28:17;;;;;;;11.53;7.97;;;17.40;99.90;;;;;;5073735;28;20232;-80
2021/07/19 01:30:46;;;;;;;12.77;7.27;;;17.30;99.90;;;;;;5073494;28;20245;-80
2021/07/19 01:33:14;;;;;;;11.43;7.70;;;17.20;99.90;;;;;;5074235;28;20282;-80
2021/07/19 01:35:46;;;;;;;11.47;7.43;;;17.20;99.90;;;;;;5073705;28;20665;-80
2021/07/19 01:38:14;;;;;;;10.80;7.53;;;17.30;99.90;;;;;;5074877;28;20574;-80
2021/07/19 01:40:41;;;;;;;11.83;7.33;;;17.30;99.90;;;;;;5073605;28;20195;-80
2021/07/19 01:43:10;;;;;;;9.90;7.43;;;17.20;99.90;;;;;;5074394;28;20278;-81
2021/07/19 01:45:38;;;;;;;10.77;7.57;;;17.20;99.90;;;;;;5072981;28;20223;-80
2021/07/19 01:48:08;;;;;;;15.53;7.40;;;17.10;99.90;;;;;;5073767;28;20286;-80
2021/07/19 01:50:36;;;;;;;11.03;7.80;;;17.20;99.90;;;;;;5073449;28;20294;-80
2021/07/19 01:53:04;;;;;;;12.70;7.53;;;17.30;99.90;;;;;;5073453;28;20198;-80
2021/07/19 01:55:32;;;;;;;9.13;7.00;;;17.30;99.90;;;;;;5073689;28;20566;-80
2021/07/19 01:58:00;;;;;;;8.73;7.00;;;17.10;99.90;;;;;;5073778;28;20307;-80
2021/07/19 02:00:28;;;;;;;12.80;7.87;;;17.10;99.90;;;;;;5072896;28;20669;-81
2021/07/19 02:02:55;;;;;;;13.30;7.60;;;17.00;99.90;;;;;;5091307;28;20282;-80
2021/07/19 02:05:25;;;;;;;9.93;6.57;;;17.00;99.90;;;;;;5093513;28;20305;-80
2021/07/19 02:07:55;;;;;;;8.97;6.97;;;17.10;99.90;;;;;;5093316;28;20230;-81
2021/07/19 02:10:22;;;;;;;10.10;7.40;;;17.30;99.90;;;;;;5093570;28;20282;-80
2021/07/19 02:12:50;;;;;;;10.37;7.93;;;17.30;99.90;;;;;;5093275;28;20600;-80
2021/07/19 02:15:19;;;;;;;7.93;6.80;;;17.40;99.90;;;;;;5092779;28;20282;-80
2021/07/19 02:17:49;;;;;;;10.00;8.43;;;17.40;99.90;;;;;;5093252;28;20286;-80
2021/07/19 02:20:18;;;;;;;11.20;8.00;;;17.40;99.90;;;;;;5093645;28;20290;-80
2021/07/19 02:22:47;;;;;;;16.60;8.90;;;17.40;99.90;;;;;;5093552;28;20203;-80
2021/07/19 02:25:16;;;;;;;12.87;9.90;;;17.50;99.90;;;;;;5091855;28;20224;-80
2021/07/19 02:27:45;;;;;;;12.90;9.77;;;17.30;99.90;;;;;;5093731;28;20706;-81
2021/07/19 02:30:15;;;;;;;13.60;9.20;;;17.30;99.90;;;;;;5093011;28;20290;-80
2021/07/19 02:32:45;;;;;;;15.63;10.33;;;17.30;99.90;;;;;;5083745;28;20278;-80
2021/07/19 02:35:14;;;;;;;18.30;11.37;;;17.20;99.90;;;;;;5072994;28;20198;-81
2021/07/19 02:37:43;;;;;;;17.00;11.97;;;17.20;99.90;;;;;;5073361;28;20195;-81
2021/07/19 02:40:14;;;;;;;14.07;10.43;;;17.20;99.90;;;;;;5073424;28;20231;-80
2021/07/19 02:42:43;;;;;;;15.47;11.63;;;17.20;99.90;;;;;;5074673;28;20241;-80
2021/07/19 02:45:14;;;;;;;15.20;11.13;;;17.20;99.90;;;;;;5076956;28;20313;-80
2021/07/19 02:47:42;;;;;;;18.03;11.60;;;17.20;99.90;;;;;;5075920;28;20242;-80
2021/07/19 02:50:10;;;;;;;17.17;10.97;;;17.00;99.90;;;;;;5076951;28;20290;-81
2021/07/19 02:52:39;;;;;;;16.87;11.17;;;17.00;99.90;;;;;;5085012;28;20744;-80
2021/07/19 02:55:08;;;;;;;18.07;11.07;;;17.00;99.90;;;;;;5097230;28;20282;-81
2021/07/19 02:57:37;;;;;;;19.30;10.97;;;17.00;99.90;;;;;;5096656;28;20234;-81
2021/07/19 03:00:07;;;;;;;16.20;10.60;;;17.00;99.90;;;;;;5096749;28;20189;-81
2021/07/19 03:02:38;;;;;;;14.47;10.87;;;16.80;99.90;;;;;;5096112;28;20209;-81
2021/07/19 03:05:06;;;;;;;13.50;10.73;;;16.80;99.90;;;;;;5096466;28;20228;-81
2021/07/19 03:07:33;;;;;;;14.87;10.90;;;16.80;99.90;;;;;;5081972;28;20191;-80
2021/07/19 03:10:03;;;;;;;16.80;10.00;;;16.70;99.90;;;;;;5076649;28;20199;-80
2021/07/19 03:12:33;;;;;;;12.00;9.70;;;16.60;99.90;;;;;;5075968;28;20235;-80
2021/07/19 03:15:02;;;;;;;21.03;10.40;;;16.60;99.90;;;;;;5076214;28;20234;-81
2021/07/19 03:17:29;;;;;;;15.50;10.37;;;16.60;99.90;;;;;;5075911;28;20282;-81
2021/07/19 03:19:59;;;;;;;16.17;10.63;;;16.70;99.90;;;;;;5075457;28;20200;-81
2021/07/19 03:22:27;;;;;;;15.27;10.33;;;16.80;99.90;;;;;;5075967;28;20640;-80
2021/07/19 03:24:55;;;;;;;13.83;10.20;;;16.90;99.90;;;;;;5075809;28;20771;-80
2021/07/19 03:27:23;;;;;;;20.23;11.30;;;16.80;99.90;;;;;;5075599;28;20299;-81
2021/07/19 03:29:51;;;;;;;20.63;11.37;;;16.80;99.90;;;;;;5076192;28;20294;-81
2021/07/19 03:32:21;;;;;;;16.43;11.13;;;16.60;99.90;;;;;;5086563;28;20191;-81
2021/07/19 03:34:49;;;;;;;19.80;11.70;;;16.50;99.90;;;;;;5095132;28;20199;-80
2021/07/19 03:37:17;;;;;;;16.83;10.63;;;16.60;99.90;;;;;;5095890;28;20396;-80
2021/07/19 03:39:45;;;;;;;16.70;10.37;;;16.70;99.90;;;;;;5095735;28;20285;-80
2021/07/19 03:42:14;;;;;;;17.90;10.77;;;16.70;99.90;;;;;;5096026;28;20226;-80
2021/07/19 03:44:41;;;;;;;16.63;11.00;;;16.60;99.90;;;;;;5094898;28;20268;-81
2021/07/19 03:47:12;;;;;;;18.60;11.40;;;16.70;99.90;;;;;;5075492;28;20233;-80
2021/07/19 03:49:41;;;;;;;17.53;10.70;;;16.40;99.90;;;;;;5074831;28;20294;-80
2021/07/19 03:52:09;;;;;;;14.93;10.33;;;16.20;99.90;;;;;;5075481;28;20200;-80
2021/07/19 03:54:36;;;;;;;13.87;9.97;;;16.20;99.90;;;;;;5075215;28;20326;-80
2021/07/19 03:57:04;;;;;;;18.53;9.83;;;16.40;99.90;;;;;;5095680;28;20290;-80
2021/07/19 03:59:33;;;;;;;14.03;10.13;;;16.50;99.90;;;;;;5095477;28;20723;-80
2021/07/19 04:02:06;;;;;;;17.73;10.67;;;16.60;99.90;;;;;;5095548;28;20286;-80
2021/07/19 04:04:39;;;;;;;15.87;9.63;;;16.60;99.90;;;;;;5095553;28;20227;-80
2021/07/19 04:07:08;;;;;;;18.83;10.50;;;16.60;99.90;;;;;;5094496;28;20195;-80
2021/07/19 04:09:38;;;;;;;15.93;11.10;;;16.50;99.90;;;;;;5095488;28;20628;-80
2021/07/19 04:12:06;;;;;;;18.87;10.90;;;16.50;99.90;;;;;;5095328;28;20624;-80
2021/07/19 04:14:33;;;;;;;18.20;10.43;;;16.70;99.90;;;;;;5095252;28;20827;-80
2021/07/19 04:17:00;;;;;;;17.87;11.10;;;16.70;99.90;;;;;;5095147;28;20201;-80
2021/07/19 04:19:29;;;;;;;16.77;10.13;;;16.80;99.90;;;;;;5095454;28;20237;-80
2021/07/19 04:21:56;;;;;;;16.77;11.33;;;16.80;99.90;;;;;;5078019;28;20282;-80
2021/07/19 04:24:24;;;;;;;18.67;9.87;;;16.80;99.90;;;;;;5074940;28;20200;-81
2021/07/19 04:26:52;;;;;;;18.13;11.13;;;16.90;99.90;;;;;;5074817;28;20290;-80
2021/07/19 04:29:22;;;;;;;18.90;10.87;;;17.00;99.90;;;;;;5082464;28;20284;-80
2021/07/19 04:31:53;;;;;;;16.63;10.83;;;17.00;99.90;;;;;;5094848;28;20202;-81
2021/07/19 04:34:28;;;;;;;14.43;10.03;;;16.70;99.90;;;;;;5094645;28;20181;-80
2021/07/19 04:36:59;;;;;;;14.67;9.23;;;16.60;99.90;;;;;;5094046;28;20285;-80
2021/07/19 04:39:27;;;;;;;14.13;9.43;;;16.90;99.90;;;;;;5073906;28;20203;-80
2021/07/19 04:41:54;;;;;;;14.97;9.43;;;17.00;99.90;;;;;;5092446;28;20290;-80
2021/07/19 04:44:22;;;;;;;14.77;9.43;;;17.00;99.90;;;;;;5094735;28;20199;-81
2021/07/19 04:46:50;;;;;;;11.37;9.10;;;17.00;99.90;;;;;;5094419;28;20260;-80
2021/07/19 04:49:17;;;;;;;17.57;9.83;;;17.00;99.90;;;;;;5093428;28;20540;-80
2021/07/19 04:51:44;;;;;;;13.87;9.80;;;17.10;99.90;;;;;;5094700;28;20262;-80
2021/07/19 04:54:13;;;;;;;17.03;9.83;;;17.20;99.90;;;;;;5093887;28;20215;-80
2021/07/19 04:56:42;;;;;;;15.40;9.90;;;17.10;99.90;;;;;;5094325;28;20263;-80
2021/07/19 04:59:10;;;;;;;16.97;9.27;;;17.00;99.90;;;;;;5095131;28;20195;-80
2021/07/19 05:01:39;;;;;;;17.00;9.63;;;17.00;99.90;;;;;;5076072;28;20282;-80
2021/07/19 05:04:07;;;;;;;16.10;10.37;;;17.00;99.90;;;;;;5074247;28;20286;-80
2021/07/19 05:06:36;;;;;;;16.00;10.87;;;17.10;99.90;;;;;;5073400;28;20211;-80
2021/07/19 05:09:04;;;;;;;18.03;10.20;;;17.20;99.90;;;;;;5073193;28;20236;-80
2021/07/19 05:11:31;;;;;;;14.80;10.10;;;17.30;99.90;;;;;;5073836;28;20196;-80
2021/07/19 05:14:01;;;;;;;14.33;10.53;;;17.40;99.90;;;;;;5091845;28;20268;-80
2021/07/19 05:16:32;;;;;;;13.90;10.57;;;17.60;99.90;;;;;;5091218;28;20191;-80
2021/07/19 05:19:01;;;;;;;16.03;10.57;;;18.00;99.90;;;;;;5081543;28;20585;-80
2021/07/19 05:21:28;;;;;;;15.03;10.20;;;18.70;99.90;;;;;;5094233;28;20205;-80
2021/07/19 05:23:55;;;;;;;14.27;9.60;;;19.50;99.90;;;;;;5093475;28;20293;-81
2021/07/19 05:26:22;;;;;;;14.33;9.23;;;20.30;99.90;;;;;;5095365;28;20257;-80
2021/07/19 05:28:49;;;;;;;12.97;9.47;;;20.90;99.90;;;;;;5087715;28;20241;-80
2021/07/19 05:31:20;;;;;;;14.77;10.10;;;21.30;99.90;;;;;;5094571;28;20253;-80
2021/07/19 05:33:48;;;;;;;12.17;8.83;;;21.60;99.90;;;;;;5097073;28;20206;-80
2021/07/19 05:36:15;;;;;;;14.98;9.35;;;22.70;99.90;;;;;;5093768;28;20612;-80
2021/07/19 05:38:44;;;;;;;14.40;9.90;;;23.30;99.90;;;;;;5092253;28;20286;-80
2021/07/19 05:41:11;;;;;;;12.13;9.07;;;23.50;99.90;;;;;;5081695;28;20199;-80
2021/07/19 05:43:38;;;;;;;15.45;9.65;;;24.00;99.90;;;;;;5083503;28;20739;-80
2021/07/19 05:46:06;;;;;;;20.08;9.10;;;24.70;99.90;;;;;;5083047;28;20245;-80
2021/07/19 05:48:37;;;;;;;14.70;9.80;;;25.20;99.90;;;;;;5085483;28;20199;-80
2021/07/19 05:51:04;;;;;;;12.93;8.88;;;25.30;99.90;;;;;;5092992;28;20238;-80
2021/07/19 05:53:31;;;;;;;15.55;8.75;;;25.80;99.90;;;;;;5079567;28;20252;-80
2021/07/19 05:55:58;;;;;;;15.43;8.75;;;26.80;99.90;;;;;;5091890;28;20234;-80
2021/07/19 05:58:25;;;;;;;20.45;8.85;;;26.20;99.90;;;;;;5093377;28;20274;-79
2021/07/19 06:00:52;;;;;;;9.88;8.55;;;26.10;99.90;;;;;;5089638;28;20282;-79
2021/07/19 06:03:20;;;;;;;12.73;8.82;;;25.70;99.90;;;;;;5077605;28;20243;-80
2021/07/19 06:05:48;;;;;;;11.95;9.10;;;25.30;99.90;;;;;;5093094;28;20306;-79
2021/07/19 06:08:15;;;;;;;11.68;8.05;;;25.70;99.90;;;;;;5079044;28;20210;-80
2021/07/19 06:10:42;;;;;;;15.13;8.80;;;25.90;99.90;;;;;;5098344;28;20199;-80
2021/07/19 06:13:13;;;;;;;12.82;8.43;;;25.90;99.90;;;;;;5105458;28;20289;-80
2021/07/19 06:15:40;;;;;;;9.43;7.82;;;26.30;99.90;;;;;;5099570;28;21952;-81
2021/07/19 06:18:07;;;;;;;8.82;7.93;;;26.30;99.90;;;;;;5083146;28;20196;-80
2021/07/19 06:20:34;;;;;;;10.82;8.27;;;26.30;99.90;;;;;;5098288;28;20285;-81
2021/07/19 06:23:03;;;;;;;11.32;7.90;;;27.10;99.90;;;;;;5085398;28;20238;-80
2021/07/19 06:25:32;;;;;;;8.60;7.40;;;27.40;99.90;;;;;;5076006;28;20302;-80
2021/07/19 06:27:59;;;;;;;9.60;7.35;;;28.10;99.90;;;;;;5076753;28;20298;-80
2021/07/19 06:30:27;;;;;;;8.95;7.82;;;27.50;99.90;;;;;;5076252;28;20699;-80
2021/07/19 06:32:54;;;;;;;9.35;7.82;;;27.80;99.90;;;;;;5085907;28;20201;-80
2021/07/19 06:35:21;;;;;;;10.13;7.32;;;28.10;99.90;;;;;;5095188;28;20291;-80
2021/07/19 06:37:48;;;;;;;9.52;7.25;;;27.50;99.90;;;;;;5097403;28;20286;-80
2021/07/19 06:40:17;;;;;;;11.55;7.95;;;27.50;99.90;;;;;;5094598;28;20290;-80
2021/07/19 06:42:44;;;;;;;9.45;7.82;;;27.00;99.90;;;;;;5096672;28;20236;-81
2021/07/19 06:45:14;;;;;;;11.15;7.65;;;27.10;99.90;;;;;;5094494;28;20290;-80
2021/07/19 06:47:41;;;;;;;10.98;7.32;;;27.90;99.90;;;;;;5076607;28;20274;-81
2021/07/19 06:50:10;;;;;;;10.63;7.43;;;28.50;99.90;;;;;;5076134;28;20264;-81
2021/07/19 06:52:38;;;;;;;10.70;6.40;;;28.30;99.90;;;;;;5076517;28;20222;-81
2021/07/19 06:55:07;;;;;;;9.40;7.28;;;27.50;99.90;;;;;;5076085;28;20231;-81
2021/07/19 06:57:36;;;;;;;10.57;6.88;;;26.90;99.90;;;;;;5076310;28;20366;-81
2021/07/19 07:00:04;;;;;;;10.50;6.97;;;26.90;99.90;;;;;;5076212;28;20203;-81
2021/07/19 07:02:30;;;;;;;8.23;6.45;;;26.40;99.90;;;;;;5076364;28;20195;-81
2021/07/19 07:04:57;;;;;;;11.00;6.50;;;26.20;99.90;;;;;;5076584;28;20286;-81
2021/07/19 07:07:24;;;;;;;8.02;6.10;;;26.90;99.90;;;;;;5076199;28;20712;-80
2021/07/19 07:09:51;;;;;;;9.57;6.50;;;26.30;99.90;;;;;;5075401;28;20202;-81
2021/07/19 07:12:18;;;;;;;8.15;6.50;;;27.20;99.90;;;;;;5076146;28;20628;-81
2021/07/19 07:14:46;;;;;;;10.30;6.22;;;28.00;99.90;;;;;;5088827;28;20202;-81
2021/07/19 07:17:13;;;;;;;10.43;5.78;;;28.00;99.90;;;;;;5095048;28;20282;-81
2021/07/19 07:19:40;;;;;;;9.25;5.95;;;27.30;99.90;;;;;;5096866;28;20286;-81
2021/07/19 07:22:07;;;;;;;12.13;5.88;;;27.30;99.90;;;;;;5092925;28;20200;-82
2021/07/19 07:24:40;;;;;;;11.02;6.25;;;28.20;99.90;;;;;;5075080;28;20202;-81
2021/07/19 07:27:07;;;;;;;10.52;5.32;;;28.30;99.90;;;;;;5075180;28;20692;-81
2021/07/19 07:29:34;;;;;;;9.13;5.35;;;28.30;99.90;;;;;;5087767;28;20210;-81
2021/07/19 07:32:02;;;;;;;6.68;5.28;;;28.80;99.90;;;;;;5096023;28;20289;-81
2021/07/19 07:34:29;;;;;;;7.78;4.68;;;28.80;99.90;;;;;;5095685;28;20281;-81
2021/07/19 07:36:56;;;;;;;9.32;4.93;;;29.10;99.90;;;;;;5095927;28;20237;-80
2021/07/19 07:39:23;;;;;;;8.05;5.10;;;28.70;99.90;;;;;;5085243;28;20286;-80
2021/07/19 07:41:50;;;;;;;7.50;5.43;;;28.00;99.90;;;;;;5075558;28;20223;-82
2021/07/19 07:44:17;;;;;;;8.43;4.93;;;28.40;99.90;;;;;;5082541;28;20222;-80
2021/07/19 07:46:45;;;;;;;9.10;5.15;;;28.90;99.90;;;;;;5081668;28;20310;-81
2021/07/19 07:49:20;;;;;;;9.27;4.60;;;29.20;99.90;;;;;;5102156;28;20201;-81
2021/07/19 07:51:51;;;;;;;6.72;4.82;;;29.30;99.90;;;;;;5091401;28;20190;-81
2021/07/19 07:54:18;;;;;;;6.30;4.47;;;27.30;99.90;;;;;;5098052;28;20187;-80
2021/07/19 07:56:47;;;;;;;6.53;4.60;;;27.00;99.90;;;;;;5088199;28;20207;-81
2021/07/19 07:59:14;;;;;;;8.70;4.63;;;28.50;99.90;;;;;;5095733;28;20278;-81
2021/07/19 08:01:41;;;;;;;8.82;4.55;;;27.30;99.90;;;;;;5095485;28;20195;-81
2021/07/19 08:04:08;;;;;;;8.88;4.60;;;27.70;99.90;;;;;;5094613;28;20635;-81
2021/07/19 08:06:39;;;;;;;9.07;4.90;;;29.10;99.90;;;;;;5091361;28;20779;-82
2021/07/19 08:09:08;;;;;;;7.78;4.18;;;29.30;99.90;;;;;;5115271;28;20281;-81
2021/07/19 08:11:37;;;;;;;8.20;4.82;;;29.30;99.90;;;;;;5106421;28;20282;-81
2021/07/19 08:14:07;;;;;;;9.77;4.60;;;29.20;99.90;;;;;;5095917;28;20285;-81
2021/07/19 08:16:36;;;;;;;5.15;4.50;;;28.70;99.90;;;;;;5095974;28;20277;-80
2021/07/19 08:19:04;;;;;;;6.63;4.07;;;28.20;99.90;;;;;;5082998;28;20227;-80
2021/07/19 08:21:32;;;;;;;10.27;5.18;;;27.20;99.90;;;;;;5087478;28;20273;-79
2021/07/19 08:24:00;;;;;;;7.22;4.80;;;26.90;99.90;;;;;;5114571;28;20199;-79
2021/07/19 08:26:27;;;;;;;5.28;4.45;;;27.70;99.90;;;;;;5106477;28;20218;-79
2021/07/19 08:28:55;;;;;;;9.85;4.88;;;27.40;99.90;;;;;;5090086;28;20380;-81
2021/07/19 08:31:29;;;;;;;5.65;4.22;;;27.50;99.90;;;;;;5095179;28;20705;-80
2021/07/19 08:33:57;;;;;;;5.60;4.70;;;27.60;99.90;;;;;;5097903;28;20274;-81
2021/07/19 08:36:24;;;;;;;10.48;5.40;;;28.90;99.90;;;;;;5115281;28;20194;-80
2021/07/19 08:38:51;;;;;;;7.78;4.72;;;29.50;99.90;;;;;;5103899;28;20286;-80
2021/07/19 08:41:20;;;;;;;6.13;4.82;;;29.70;99.90;;;;;;5093074;28;20285;-80
2021/07/19 08:43:47;;;;;;;9.68;4.55;;;29.60;99.90;;;;;;5094660;28;20205;-80
2021/07/19 08:46:14;;;;;;;6.18;4.05;;;29.90;99.90;;;;;;5094584;28;20639;-80
2021/07/19 08:48:41;;;;;;;7.55;4.20;;;30.80;99.90;;;;;;5095038;28;20228;-80
2021/07/19 08:51:13;;;;;;;6.28;3.95;;;31.50;99.90;;;;;;5092404;28;20230;-80
2021/07/19 08:53:44;;;;;;;7.95;4.75;;;30.90;99.90;;;;;;5081916;28;20292;-81
2021/07/19 08:56:13;;;;;;;6.95;4.57;;;32.00;99.90;;;;;;5073467;28;20199;-80
2021/07/19 08:58:43;;;;;;;9.32;4.10;;;31.50;99.90;;;;;;5086274;28;20209;-80
2021/07/19 09:01:12;;;;;;;8.27;4.63;;;31.20;99.90;;;;;;5114520;28;20205;-79
2021/07/19 09:03:39;;;;;;;7.15;4.38;;;30.10;99.90;;;;;;5106945;28;20619;-80
2021/07/19 09:06:07;;;;;;;6.90;4.15;;;28.80;99.90;;;;;;5094646;28;20191;-79
2021/07/19 09:08:34;;;;;;;11.43;4.90;;;29.40;99.90;;;;;;5094104;28;20635;-80
2021/07/19 09:11:09;;;;;;;7.50;4.90;;;29.90;99.90;;;;;;5093926;28;20197;-80
2021/07/19 09:13:36;;;;;;;7.28;4.60;;;30.30;99.90;;;;;;5093302;28;20289;-80
2021/07/19 09:16:04;;;;;;;5.63;4.18;;;30.30;99.90;;;;;;5095216;28;20217;-80
2021/07/19 09:18:31;;;;;;;6.38;4.30;;;30.10;99.90;;;;;;5093332;28;20286;-79
2021/07/19 09:21:01;;;;;;;4.72;4.10;;;29.60;99.90;;;;;;5094068;28;20678;-80
2021/07/19 09:23:30;;;;;;;5.72;4.50;;;30.60;99.90;;;;;;5091736;28;20274;-79
2021/07/19 09:25:58;;;;;;;6.70;4.22;;;30.40;99.90;;;;;;5082768;28;20559;-80
2021/07/19 09:28:29;;;;;;;7.15;3.92;;;29.40;99.90;;;;;;5080884;28;20209;-81
2021/07/19 09:31:08;;;;;;;6.85;3.60;;;29.60;99.90;;;;;;5088838;28;20644;-81
2021/07/19 09:33:35;;;;;;;4.55;3.63;;;31.20;99.90;;;;;;5112925;28;20231;-82
2021/07/19 09:36:04;;;;;;;4.63;3.70;;;31.30;99.90;;;;;;5080644;28;20211;-82
2021/07/19 09:38:31;;;;;;;6.35;3.90;;;31.70;99.90;;;;;;5072305;28;20664;-80
2021/07/19 09:41:00;;;;;;;6.03;3.80;;;29.90;99.90;;;;;;5073128;28;20196;-81
2021/07/19 09:43:31;;;;;;;8.15;3.80;;;29.40;99.90;;;;;;5072561;28;20290;-81
2021/07/19 09:45:59;;;;;;;4.32;3.75;;;29.70;99.90;;;;;;5073550;28;20251;-82
2021/07/19 09:48:28;;;;;;;6.43;4.07;;;30.00;99.90;;;;;;5073596;28;20230;-81
2021/07/19 09:50:55;;;;;;;3.97;3.45;;;30.70;99.90;;;;;;5073725;28;20198;-81
2021/07/19 09:53:29;;;;;;;6.55;3.70;;;31.80;99.90;;;;;;5075064;28;20200;-81
2021/07/19 09:56:09;;;;;;;6.07;3.42;;;31.70;99.90;;;;;;5077970;28;20195;-81
2021/07/19 09:58:36;;;;;;;7.28;4.20;;;29.90;99.90;;;;;;5077141;28;20221;-80
2021/07/19 10:01:03;;;;;;;6.97;3.67;;;29.80;99.90;;;;;;5077416;28;20200;-80
2021/07/19 10:03:33;;;;;;;7.35;4.28;;;30.30;99.90;;;;;;5077652;28;20195;-80
2021/07/19 10:06:06;;;;;;;4.88;4.00;;;30.70;99.90;;;;;;5077487;28;20290;-80
2021/07/19 10:08:33;;;;;;;5.68;3.95;;;31.70;99.90;;;;;;5077383;28;20313;-79
2021/07/19 10:11:01;;;;;;;6.97;3.92;;;32.80;99.90;;;;;;5077611;28;20283;-80
2021/07/19 10:13:32;;;;;;;4.82;3.85;;;33.00;99.90;;;;;;5077128;28;20202;-79
2021/07/19 10:16:01;;;;;;;6.30;3.90;;;31.20;99.90;;;;;;5076404;28;20204;-79
2021/07/19 10:18:30;;;;;;;6.40;4.18;;;31.00;99.90;;;;;;5076983;28;20282;-80
2021/07/19 10:20:58;;;;;;;5.38;3.80;;;30.10;99.90;;;;;;5077339;28;20201;-80
2021/07/19 10:23:25;;;;;;;6.97;4.13;;;31.00;99.90;;;;;;5077267;28;20239;-80
2021/07/19 10:25:53;;;;;;;6.90;4.25;;;32.10;99.90;;;;;;5077005;28;20290;-79
2021/07/19 10:28:20;;;;;;;5.10;4.05;;;32.70;99.90;;;;;;5076568;28;20288;-80
2021/07/19 10:30:47;;;;;;;6.03;4.43;;;31.80;99.90;;;;;;5076166;28;20283;-80
2021/07/19 10:33:14;;;;;;;7.43;4.70;;;30.80;99.90;;;;;;5076902;28;20286;-79
2021/07/19 10:35:43;;;;;;;6.10;4.35;;;30.30;99.90;;;;;;5076851;28;20700;-80
2021/07/19 10:38:17;;;;;;;6.75;4.55;;;30.50;99.90;;;;;;5076898;28;20278;-79
2021/07/19 10:40:45;;;;;;;8.95;4.43;;;30.30;99.90;;;;;;5076709;28;20241;-79
2021/07/19 10:43:17;;;;;;;6.55;4.50;;;31.00;99.90;;;;;;5076655;28;20283;-79
2021/07/19 10:45:46;;;;;;;4.72;4.18;;;31.30;99.90;;;;;;5076283;28;20209;-80
2021/07/19 10:48:23;;;;;;;5.35;4.85;;;31.10;99.90;;;;;;5076614;28;20223;-79
2021/07/19 10:50:51;;;;;;;7.22;4.57;;;31.30;99.90;;;;;;5076833;28;20201;-80
2021/07/19 10:53:21;;;;;;;7.25;4.63;;;31.30;99.90;;;;;;5076766;28;20241;-79
2021/07/19 10:56:02;;;;;;;7.15;4.57;;;31.50;99.90;;;;;;5076697;28;20196;-79
2021/07/19 10:58:40;;;;;;;7.95;4.68;;;33.20;99.90;;;;;;5076209;28;20298;-79
2021/07/19 11:01:18;;;;;;;7.55;4.50;;;33.00;99.90;;;;;;5076442;28;20237;-80
2021/07/19 11:03:45;;;;;;;8.32;5.70;;;34.00;99.90;;;;;;5075492;28;20210;-79
2021/07/19 11:06:12;;;;;;;8.02;4.85;;;33.20;99.90;;;;;;5075635;28;20238;-81
2021/07/19 11:08:49;;;;;;;7.55;5.40;;;32.10;99.90;;;;;;5076319;28;20252;-79
2021/07/19 11:11:30;;;;;;;7.10;5.38;;;30.80;99.90;;;;;;5076594;28;20294;-79
2021/07/19 11:13:58;;;;;;;7.40;4.95;;;31.00;99.90;;;;;;5076240;28;20656;-79
2021/07/19 11:16:25;;;;;;;6.25;4.80;;;32.60;99.90;;;;;;5076374;28;20260;-79
2021/07/19 11:18:57;;;;;;;7.82;4.82;;;32.50;99.90;;;;;;5076230;28;20263;-78
2021/07/19 11:21:25;;;;;;;9.63;5.50;;;31.70;99.90;;;;;;5075563;28;20555;-79
2021/07/19 11:23:53;;;;;;;9.43;4.70;;;33.20;99.90;;;;;;5076288;28;20611;-79
2021/07/19 11:26:23;;;;;;;10.63;5.38;;;32.90;99.90;;;;;;5076190;28;20199;-79
2021/07/19 11:28:50;;;;;;;6.88;4.90;;;33.60;99.90;;;;;;5075801;28;20231;-79
2021/07/19 11:31:25;;;;;;;6.50;4.65;;;33.00;99.90;;;;;;5075710;28;20202;-80
2021/07/19 11:33:59;;;;;;;8.82;4.82;;;31.80;99.90;;;;;;5076073;28;20199;-79
2021/07/19 11:36:28;;;;;;;6.35;4.93;;;32.10;99.90;;;;;;5076169;28;20707;-79
2021/07/19 11:38:57;;;;;;;5.63;4.57;;;31.20;99.90;;;;;;5075341;28;20238;-79
2021/07/19 11:41:26;;;;;;;5.15;4.43;;;32.60;99.90;;;;;;5075680;28;20204;-79
2021/07/19 11:43:54;;;;;;;7.82;5.30;;;34.40;99.90;;;;;;5075606;28;20283;-80
2021/07/19 11:46:29;;;;;;;7.47;4.82;;;32.30;99.90;;;;;;5076254;28;20199;-80
2021/07/19 11:49:03;;;;;;;6.05;4.82;;;33.30;99.90;;;;;;5075605;28;20273;-79
2021/07/19 11:51:30;;;;;;;6.45;5.07;;;31.90;99.90;;;;;;5075680;28;20184;-79
2021/07/19 11:54:00;;;;;;;6.57;4.80;;;31.80;99.90;;;;;;5074921;28;20286;-80
2021/07/19 11:56:28;;;;;;;8.27;4.88;;;31.60;99.90;;;;;;5075179;28;20287;-79
2021/07/19 11:58:56;;;;;;;6.57;4.70;;;31.20;99.90;;;;;;5075427;28;20202;-79
2021/07/19 12:01:25;;;;;;;6.88;5.18;;;30.90;99.90;;;;;;5075547;28;20302;-80
2021/07/19 12:03:53;;;;;;;9.55;5.20;;;32.00;99.90;;;;;;5075382;28;20234;-78
2021/07/19 12:06:20;;;;;;;6.28;4.45;;;31.00;99.90;;;;;;5075264;28;20218;-79
2021/07/19 12:08:52;;;;;;;5.65;4.65;;;30.00;99.90;;;;;;5074225;28;20219;-79
2021/07/19 12:11:21;;;;;;;6.15;4.88;;;29.50;99.90;;;;;;5075068;28;20290;-79
2021/07/19 12:13:48;;;;;;;7.65;5.10;;;29.70;99.90;;;;;;5075107;28;20286;-79
2021/07/19 12:16:15;;;;;;;7.80;5.00;;;30.30;99.90;;;;;;5073949;28;20669;-79
2021/07/19 12:18:44;;;;;;;7.05;4.93;;;31.70;99.90;;;;;;5074919;28;20286;-79
2021/07/19 12:21:12;;;;;;;8.90;5.50;;;31.80;99.90;;;;;;5075018;28;20295;-79
2021/07/19 12:23:42;;;;;;;7.05;5.45;;;32.30;99.90;;;;;;5073921;28;20278;-79
2021/07/19 12:26:11;;;;;;;6.72;5.57;;;31.60;99.90;;;;;;5074910;28;20195;-79
2021/07/19 12:28:39;;;;;;;6.18;5.57;;;30.20;99.90;;;;;;5074393;28;20807;-79
2021/07/19 12:31:20;;;;;;;8.00;5.80;;;30.20;99.90;;;;;;5077439;28;20222;-80
2021/07/19 12:33:47;;;;;;;6.32;5.57;;;31.10;99.90;;;;;;5074837;28;20203;-79
2021/07/19 12:36:19;;;;;;;6.95;5.53;;;31.10;99.90;;;;;;5074542;28;20290;-79
2021/07/19 12:38:46;;;;;;;8.90;5.57;;;31.20;99.90;;;;;;5074747;28;20203;-79
2021/07/19 12:41:15;;;;;;;9.45;5.35;;;30.80;99.90;;;;;;5073929;28;20209;-80
2021/07/19 12:43:44;;;;;;;8.40;5.82;;;29.80;99.90;;;;;;5074397;28;20199;-78
2021/07/19 12:46:12;;;;;;;8.23;6.10;;;29.40;99.90;;;;;;5074313;28;20711;-79
2021/07/19 12:48:43;;;;;;;6.65;5.82;;;29.50;99.90;;;;;;5074071;28;20305;-79